METAR AND TAF INFORMATION
METAR FOR EGBB
ADDS - METARS form results

(2347 UTC 20 April 2018)
Data provider http://aviationweather.gov/adds/metars/
 
METAR text: EGBB 202320Z 34006KT CAVOK 12/06 Q1024
Conditions at: EGBB (BIRMINGHAM AIRPO, GB) observed 2320 UTC 20 April 2018
Temperature: 12.0°C (54°F)
Dewpoint: 6.0°C (43°F) [RH = 67%]
Pressure (altimeter): 30.24 inches Hg (1024.0 mb)
Winds: from the NNW (340 degrees) at 7 MPH (6 knots; 3.1 m/s)
Visibility: 6 or more miles (10+ km)
Ceiling: ceiling and visibility are OK
Clouds: unknown
Weather: no significant weather observed at this time

METAR text: EGBB 202250Z 35005KT CAVOK 12/06 Q1024
Conditions at: EGBB (BIRMINGHAM AIRPO, GB) observed 2250 UTC 20 April 2018
Temperature: 12.0°C (54°F)
Dewpoint: 6.0°C (43°F) [RH = 67%]
Pressure (altimeter): 30.24 inches Hg (1024.0 mb)
Winds: from the N (350 degrees) at 6 MPH (5 knots; 2.6 m/s)
Visibility: 6 or more miles (10+ km)
Ceiling: ceiling and visibility are OK
Clouds: unknown
Weather: no significant weather observed at this time

Forecast for: EGBB (BIRMINGHAM AIRPO, GB)
Text: TAF EGBB 202257Z 2100/2124 04005KT CAVOK
Forecast period: 0000 UTC 21 April 2018 to 0000 UTC 22 April 2018
Forecast type: FROM: standard forecast or significant change
Winds: from the NE (40 degrees) at 6 MPH (5 knots; 2.6 m/s)
Visibility: 6 or more miles (10+ km)
Clouds: not forecast
Weather: NSW  (no significant weather)
Forecast for: EGBB (BIRMINGHAM AIRPO, GB)
Text: TAF EGBB 202257Z 2100/2124 04005KT CAVOK
Forecast period: 0000 UTC 21 April 2018 to 0000 UTC 22 April 2018
Forecast type: FROM: standard forecast or significant change
Winds: from the NE (40 degrees) at 6 MPH (5 knots; 2.6 m/s)
Visibility: 6 or more miles (10+ km)
Clouds: not forecast
Weather: NSW  (no significant weather)
Forecast for: EGBB (BIRMINGHAM AIRPO, GB)
Text: TAF EGBB 202257Z 2100/2124 04005KT CAVOK
Forecast period: 1400 to 2200 UTC 21 April 2018
Forecast type: TEMPORARY: The following changes expected for less than half the time period
Winds: variable direction winds at 17 MPH (15 knots; 7.8 m/s)
gusting to 29 MPH (25 knots; 13.0 m/s)
Visibility: 3 miles (5 km)
Ceiling: 4800 feet AGL
Clouds: broken clouds at 4800 feet AGL
Weather: +SHRA TSGR  (heavy rain showers, hail associated with thunderstorm(s))
Forecast for: EGBB (BIRMINGHAM AIRPO, GB)
Text: TAF EGBB 202257Z 2100/2124 04005KT CAVOK
Forecast period: 1400 to 2200 UTC 21 April 2018
Forecast type: TEMPORARY: The following changes expected for less than half the time period
Winds: variable direction winds at 17 MPH (15 knots; 7.8 m/s)
gusting to 29 MPH (25 knots; 13.0 m/s)
Visibility: 3 miles (5 km)
Ceiling: 4800 feet AGL
Clouds: broken clouds at 4800 feet AGL
Weather: +SHRA TSGR  (heavy rain showers, hail associated with thunderstorm(s))

 AIRPORT MAP

 RUNWAY INFORMATION
Runway 15 Runway length 8527 ft Runway width 151 ft
Runway elevation 305 ft Runway displaced threshold 1069 ft Runway heading 148
Runway 33 Runway length 8527 ft Runway width 151 ft
Runway elevation 328 ft Runway displaced threshold 987 ft Runway heading 328

 AIRPORT FREQUENCIES
Type APP Name APP Frequency 118.05 MHZ
Type ATIS Name ATIS Frequency 136.02 MHZ
Type GND Name GND Frequency 121.8 MHZ
Type TWR Name TWR Frequency 118.3 MHZ

 AIRPORT NEAR NAVIGATION AIDS
Type NDB Name Birmingham Frequency 406 KHZ



v2.6.1